Patcona II — WDC2170 — position and weather

sailwx.info

Track history (hours):
 
Tides and Currents Weather Stations Pressure Air Temp Water Temp Dewpoint Dewpoint Depression Visibility Wind Speed Wind Dir Waves Ship Positions

Patcona II

Owner: Connolly-Pacific Co, long beach, CA. More information available from US FCC via Universal Licensing System and Coast Guard Vessel Documentation Center.

Last reported at 2017-Dec-02 00:14 UTC. Time now 2017-Dec-12 06:45 UTC.
Position N 33°46' W 118°13'.
Warning: this ship's position is 10 days out of date.

Length 25 m; draft 3.5 m.

Type: Towing. MMSI: 366988960.

Date/timePositionNaut miles runAvg speedWind from/ knotsBaromVisibWave heightAir tempDewpointWater temp
2017-Dec-02 00:14N 33°46' W 118°13'2 5.9
2017-Dec-01 23:54N 33°44' W 118°14'0 0.2
2017-Dec-01 23:30N 33°44' W 118°14'1 1.1
2017-Dec-01 23:00N 33°44' W 118°13'2 0.6
2017-Dec-01 19:44N 33°46' W 118°13'0 0.2
2017-Dec-01 19:26N 33°46' W 118°13'0 0.0
2017-Nov-30 21:39N 33°46' W 118°13'0 0.0
2017-Nov-29 20:59N 33°46' W 118°13'0 0.0
2017-Nov-29 20:30N 33°46' W 118°13'2 3.2
2017-Nov-29 20:00N 33°44' W 118°14'2 4.2
2017-Nov-29 19:29N 33°43' W 118°11'0 0.2
2017-Nov-29 19:00N 33°43' W 118°11'3 0.7
2017-Nov-29 14:56N 33°46' W 118°13'0 0.0
2017-Nov-28 22:17N 33°46' W 118°13'2 6.4
2017-Nov-28 22:00N 33°44' W 118°14'3 2.0
2017-Nov-28 20:38N 33°44' W 118°11'0 0.6
2017-Nov-28 20:28N 33°43' W 118°11'0 0.0
2017-Nov-28 20:00N 33°43' W 118°11'0 0.0
2017-Nov-28 19:30N 33°43' W 118°11'0 0.0
2017-Nov-28 18:57N 33°43' W 118°11'0 0.0
2017-Nov-28 18:30N 33°43' W 118°11'0 0.3
2017-Nov-28 18:00N 33°43' W 118°11'0 0.2
2017-Nov-28 17:30N 33°44' W 118°11'0 0.1
2017-Nov-28 17:00N 33°43' W 118°11'3 1.1
2017-Nov-28 14:36N 33°45' W 118°13'1 5.0
2017-Nov-28 14:28N 33°46' W 118°13'  
Track history (hours):
 
Tides and Currents Weather Stations Pressure Air Temp Water Temp Dewpoint Dewpoint Depression Visibility Wind Speed Wind Dir Waves Ship Positions

Patcona II

Owner: Connolly-Pacific Co, long beach, CA. More information available from US FCC via Universal Licensing System and Coast Guard Vessel Documentation Center.

Last reported at 2017-Dec-02 00:14 UTC. Time now 2017-Dec-12 06:45 UTC.
Position N 33°46' W 118°13'.
Warning: this ship's position is 10 days out of date.

Length 25 m; draft 3.5 m.

Type: Towing. MMSI: 366988960.

Date/timePositionNaut miles runAvg speedWind from/ knotsBaromVisibWave heightAir tempDewpointWater temp
2017-Dec-02 00:14N 33°46' W 118°13'2 5.9
2017-Dec-01 23:54N 33°44' W 118°14'0 0.2
2017-Dec-01 23:30N 33°44' W 118°14'1 1.1
2017-Dec-01 23:00N 33°44' W 118°13'2 0.6
2017-Dec-01 19:44N 33°46' W 118°13'0 0.2
2017-Dec-01 19:26N 33°46' W 118°13'0 0.0
2017-Nov-30 21:39N 33°46' W 118°13'0 0.0
2017-Nov-29 20:59N 33°46' W 118°13'0 0.0
2017-Nov-29 20:30N 33°46' W 118°13'2 3.2
2017-Nov-29 20:00N 33°44' W 118°14'2 4.2
2017-Nov-29 19:29N 33°43' W 118°11'0 0.2
2017-Nov-29 19:00N 33°43' W 118°11'3 0.7
2017-Nov-29 14:56N 33°46' W 118°13'0 0.0
2017-Nov-28 22:17N 33°46' W 118°13'2 6.4
2017-Nov-28 22:00N 33°44' W 118°14'3 2.0
2017-Nov-28 20:38N 33°44' W 118°11'0 0.6
2017-Nov-28 20:28N 33°43' W 118°11'0 0.0
2017-Nov-28 20:00N 33°43' W 118°11'0 0.0
2017-Nov-28 19:30N 33°43' W 118°11'0 0.0
2017-Nov-28 18:57N 33°43' W 118°11'0 0.0
2017-Nov-28 18:30N 33°43' W 118°11'0 0.3
2017-Nov-28 18:00N 33°43' W 118°11'0 0.2
2017-Nov-28 17:30N 33°44' W 118°11'0 0.1
2017-Nov-28 17:00N 33°43' W 118°11'3 1.1
2017-Nov-28 14:36N 33°45' W 118°13'1 5.0
2017-Nov-28 14:28N 33°46' W 118°13'  

Dump ship's entire track history